sensor_id;sensor_type;location;lat;lon;timestamp;P1;durP1;ratioP1;P2;durP2;ratioP2
34737;SDS011;39910;47.154;27.614;2023-09-19T00:00:20;11.40;;;10.90;;
34737;SDS011;39910;47.154;27.614;2023-09-19T00:02:46;11.07;;;10.57;;
34737;SDS011;39910;47.154;27.614;2023-09-19T00:05:12;11.10;;;10.60;;
34737;SDS011;39910;47.154;27.614;2023-09-19T00:07:37;10.70;;;10.20;;
34737;SDS011;39910;47.154;27.614;2023-09-19T00:10:03;11.30;;;10.80;;
34737;SDS011;39910;47.154;27.614;2023-09-19T00:12:29;11.10;;;10.60;;
34737;SDS011;39910;47.154;27.614;2023-09-19T00:14:55;11.35;;;10.85;;
34737;SDS011;39910;47.154;27.614;2023-09-19T00:17:21;11.10;;;10.60;;
34737;SDS011;39910;47.154;27.614;2023-09-19T00:19:47;11.40;;;10.90;;
34737;SDS011;39910;47.154;27.614;2023-09-19T00:22:16;11.40;;;10.90;;
34737;SDS011;39910;47.154;27.614;2023-09-19T00:24:44;10.73;;;10.23;;
34737;SDS011;39910;47.154;27.614;2023-09-19T00:27:09;11.40;;;10.90;;
34737;SDS011;39910;47.154;27.614;2023-09-19T00:29:35;10.98;;;10.48;;
34737;SDS011;39910;47.154;27.614;2023-09-19T00:32:01;10.93;;;10.43;;
34737;SDS011;39910;47.154;27.614;2023-09-19T00:34:28;10.95;;;10.45;;
34737;SDS011;39910;47.154;27.614;2023-09-19T00:36:54;11.10;;;10.60;;
34737;SDS011;39910;47.154;27.614;2023-09-19T00:39:20;11.20;;;10.70;;
34737;SDS011;39910;47.154;27.614;2023-09-19T00:41:47;10.77;;;10.27;;
34737;SDS011;39910;47.154;27.614;2023-09-19T00:44:12;11.27;;;10.77;;
34737;SDS011;39910;47.154;27.614;2023-09-19T00:46:38;10.98;;;10.48;;
34737;SDS011;39910;47.154;27.614;2023-09-19T00:49:03;11.25;;;10.75;;
34737;SDS011;39910;47.154;27.614;2023-09-19T00:51:28;11.57;;;11.07;;
34737;SDS011;39910;47.154;27.614;2023-09-19T00:53:54;10.98;;;10.48;;
34737;SDS011;39910;47.154;27.614;2023-09-19T00:56:20;11.00;;;10.50;;
34737;SDS011;39910;47.154;27.614;2023-09-19T00:58:45;10.95;;;10.45;;
34737;SDS011;39910;47.154;27.614;2023-09-19T01:01:12;11.15;;;10.65;;
34737;SDS011;39910;47.154;27.614;2023-09-19T01:03:39;10.98;;;10.48;;
34737;SDS011;39910;47.154;27.614;2023-09-19T01:06:05;10.75;;;10.25;;
34737;SDS011;39910;47.154;27.614;2023-09-19T01:08:32;11.20;;;10.70;;
34737;SDS011;39910;47.154;27.614;2023-09-19T01:11:05;10.90;;;10.40;;
34737;SDS011;39910;47.154;27.614;2023-09-19T01:13:47;11.30;;;10.80;;
34737;SDS011;39910;47.154;27.614;2023-09-19T01:16:19;11.10;;;10.60;;
34737;SDS011;39910;47.154;27.614;2023-09-19T01:31:22;11.00;;;10.50;;
34737;SDS011;39910;47.154;27.614;2023-09-19T01:36:27;11.50;;;11.00;;
34737;SDS011;39910;47.154;27.614;2023-09-19T01:38:54;11.32;;;10.82;;
34737;SDS011;39910;47.154;27.614;2023-09-19T01:41:26;11.30;;;10.80;;
34737;SDS011;39910;47.154;27.614;2023-09-19T01:43:51;11.00;;;10.50;;
34737;SDS011;39910;47.154;27.614;2023-09-19T01:46:30;11.02;;;10.52;;
34737;SDS011;39910;47.154;27.614;2023-09-19T01:51:32;11.95;;;11.40;;
34737;SDS011;39910;47.154;27.614;2023-09-19T01:56:31;11.40;;;10.90;;
34737;SDS011;39910;47.154;27.614;2023-09-19T01:58:59;11.13;;;10.63;;
34737;SDS011;39910;47.154;27.614;2023-09-19T02:01:26;11.05;;;10.55;;
34737;SDS011;39910;47.154;27.614;2023-09-19T02:03:53;11.00;;;10.50;;
34737;SDS011;39910;47.154;27.614;2023-09-19T02:06:19;10.82;;;10.32;;
34737;SDS011;39910;47.154;27.614;2023-09-19T02:08:47;10.73;;;10.23;;
34737;SDS011;39910;47.154;27.614;2023-09-19T02:11:13;11.15;;;10.65;;
34737;SDS011;39910;47.154;27.614;2023-09-19T02:13:38;10.95;;;10.45;;
34737;SDS011;39910;47.154;27.614;2023-09-19T02:16:04;11.57;;;11.07;;
34737;SDS011;39910;47.154;27.614;2023-09-19T02:18:30;11.10;;;10.60;;
34737;SDS011;39910;47.154;27.614;2023-09-19T02:20:56;10.70;;;10.20;;
34737;SDS011;39910;47.154;27.614;2023-09-19T02:23:23;11.27;;;10.77;;
34737;SDS011;39910;47.154;27.614;2023-09-19T02:25:52;11.50;;;11.00;;
34737;SDS011;39910;47.154;27.614;2023-09-19T02:28:18;11.48;;;10.98;;
34737;SDS011;39910;47.154;27.614;2023-09-19T02:30:46;11.68;;;11.18;;
34737;SDS011;39910;47.154;27.614;2023-09-19T02:33:12;11.60;;;11.10;;
34737;SDS011;39910;47.154;27.614;2023-09-19T02:35:38;11.18;;;10.68;;
34737;SDS011;39910;47.154;27.614;2023-09-19T02:38:03;11.05;;;10.55;;
34737;SDS011;39910;47.154;27.614;2023-09-19T02:40:31;11.27;;;10.77;;
34737;SDS011;39910;47.154;27.614;2023-09-19T02:42:57;11.45;;;10.95;;
34737;SDS011;39910;47.154;27.614;2023-09-19T02:45:24;11.63;;;11.13;;
34737;SDS011;39910;47.154;27.614;2023-09-19T02:47:50;11.48;;;10.98;;
34737;SDS011;39910;47.154;27.614;2023-09-19T02:50:15;11.27;;;10.77;;
34737;SDS011;39910;47.154;27.614;2023-09-19T02:52:44;11.15;;;10.65;;
34737;SDS011;39910;47.154;27.614;2023-09-19T02:55:13;11.15;;;10.65;;
34737;SDS011;39910;47.154;27.614;2023-09-19T02:57:52;11.07;;;10.57;;
34737;SDS011;39910;47.154;27.614;2023-09-19T03:00:20;11.50;;;11.00;;
34737;SDS011;39910;47.154;27.614;2023-09-19T03:02:46;10.63;;;10.13;;
34737;SDS011;39910;47.154;27.614;2023-09-19T03:05:11;11.55;;;11.05;;
34737;SDS011;39910;47.154;27.614;2023-09-19T03:07:37;10.90;;;10.40;;
34737;SDS011;39910;47.154;27.614;2023-09-19T03:10:03;11.18;;;10.68;;
34737;SDS011;39910;47.154;27.614;2023-09-19T03:12:28;11.00;;;10.50;;
34737;SDS011;39910;47.154;27.614;2023-09-19T03:14:54;11.60;;;11.10;;
34737;SDS011;39910;47.154;27.614;2023-09-19T03:17:20;11.40;;;10.90;;
34737;SDS011;39910;47.154;27.614;2023-09-19T03:19:46;10.95;;;10.45;;
34737;SDS011;39910;47.154;27.614;2023-09-19T03:22:12;11.30;;;10.80;;
34737;SDS011;39910;47.154;27.614;2023-09-19T03:24:38;10.95;;;10.45;;
34737;SDS011;39910;47.154;27.614;2023-09-19T03:27:03;11.15;;;10.65;;
34737;SDS011;39910;47.154;27.614;2023-09-19T03:29:29;10.70;;;10.20;;
34737;SDS011;39910;47.154;27.614;2023-09-19T03:31:54;10.80;;;10.30;;
34737;SDS011;39910;47.154;27.614;2023-09-19T03:34:20;11.07;;;10.57;;
34737;SDS011;39910;47.154;27.614;2023-09-19T03:36:45;10.85;;;10.35;;
34737;SDS011;39910;47.154;27.614;2023-09-19T03:39:11;11.13;;;10.63;;
34737;SDS011;39910;47.154;27.614;2023-09-19T03:41:36;11.10;;;10.60;;
34737;SDS011;39910;47.154;27.614;2023-09-19T03:44:01;11.30;;;10.80;;
34737;SDS011;39910;47.154;27.614;2023-09-19T03:46:27;10.95;;;10.45;;
34737;SDS011;39910;47.154;27.614;2023-09-19T03:48:53;11.57;;;11.07;;
34737;SDS011;39910;47.154;27.614;2023-09-19T03:51:19;11.27;;;10.77;;
34737;SDS011;39910;47.154;27.614;2023-09-19T03:53:45;10.82;;;10.32;;
34737;SDS011;39910;47.154;27.614;2023-09-19T03:56:10;12.82;;;12.23;;
34737;SDS011;39910;47.154;27.614;2023-09-19T03:58:35;12.65;;;12.05;;
34737;SDS011;39910;47.154;27.614;2023-09-19T04:01:04;12.00;;;11.43;;
34737;SDS011;39910;47.154;27.614;2023-09-19T04:03:32;10.98;;;10.48;;
34737;SDS011;39910;47.154;27.614;2023-09-19T04:06:10;10.88;;;10.38;;
34737;SDS011;39910;47.154;27.614;2023-09-19T04:08:37;10.80;;;10.30;;
34737;SDS011;39910;47.154;27.614;2023-09-19T04:11:02;11.00;;;10.50;;
34737;SDS011;39910;47.154;27.614;2023-09-19T04:13:27;11.38;;;10.88;;
34737;SDS011;39910;47.154;27.614;2023-09-19T04:15:53;11.45;;;10.95;;
34737;SDS011;39910;47.154;27.614;2023-09-19T04:18:18;11.82;;;11.32;;
34737;SDS011;39910;47.154;27.614;2023-09-19T04:20:51;11.95;;;11.45;;
34737;SDS011;39910;47.154;27.614;2023-09-19T04:23:17;11.75;;;11.25;;
34737;SDS011;39910;47.154;27.614;2023-09-19T04:25:45;11.63;;;11.13;;
34737;SDS011;39910;47.154;27.614;2023-09-19T04:28:10;11.50;;;11.00;;
34737;SDS011;39910;47.154;27.614;2023-09-19T04:30:36;11.48;;;10.98;;
34737;SDS011;39910;47.154;27.614;2023-09-19T04:33:01;11.77;;;11.27;;
34737;SDS011;39910;47.154;27.614;2023-09-19T04:35:27;11.63;;;11.13;;
34737;SDS011;39910;47.154;27.614;2023-09-19T04:37:56;11.82;;;11.32;;
34737;SDS011;39910;47.154;27.614;2023-09-19T04:40:22;12.10;;;11.60;;
34737;SDS011;39910;47.154;27.614;2023-09-19T04:42:53;11.82;;;11.32;;
34737;SDS011;39910;47.154;27.614;2023-09-19T04:47:47;11.43;;;10.93;;
34737;SDS011;39910;47.154;27.614;2023-09-19T04:50:12;12.20;;;11.70;;
34737;SDS011;39910;47.154;27.614;2023-09-19T04:52:41;11.82;;;11.32;;
34737;SDS011;39910;47.154;27.614;2023-09-19T04:55:08;11.80;;;11.30;;
34737;SDS011;39910;47.154;27.614;2023-09-19T04:57:34;11.63;;;11.13;;
34737;SDS011;39910;47.154;27.614;2023-09-19T04:59:59;11.73;;;11.23;;
34737;SDS011;39910;47.154;27.614;2023-09-19T05:02:24;11.98;;;11.48;;
34737;SDS011;39910;47.154;27.614;2023-09-19T05:04:50;11.93;;;11.43;;
34737;SDS011;39910;47.154;27.614;2023-09-19T05:07:15;11.88;;;11.38;;
34737;SDS011;39910;47.154;27.614;2023-09-19T05:09:42;11.85;;;11.35;;
34737;SDS011;39910;47.154;27.614;2023-09-19T05:12:07;11.95;;;11.45;;
34737;SDS011;39910;47.154;27.614;2023-09-19T05:14:35;11.90;;;11.40;;
34737;SDS011;39910;47.154;27.614;2023-09-19T05:17:00;11.43;;;10.93;;
34737;SDS011;39910;47.154;27.614;2023-09-19T05:19:26;11.57;;;11.07;;
34737;SDS011;39910;47.154;27.614;2023-09-19T05:21:52;11.98;;;11.48;;
34737;SDS011;39910;47.154;27.614;2023-09-19T05:24:17;11.80;;;11.30;;
34737;SDS011;39910;47.154;27.614;2023-09-19T05:26:43;12.10;;;11.60;;
34737;SDS011;39910;47.154;27.614;2023-09-19T05:29:08;11.90;;;11.40;;
34737;SDS011;39910;47.154;27.614;2023-09-19T05:31:34;11.93;;;11.43;;
34737;SDS011;39910;47.154;27.614;2023-09-19T05:34:01;12.07;;;11.57;;
34737;SDS011;39910;47.154;27.614;2023-09-19T05:36:27;11.85;;;11.35;;
34737;SDS011;39910;47.154;27.614;2023-09-19T05:38:54;11.70;;;11.20;;
34737;SDS011;39910;47.154;27.614;2023-09-19T05:41:20;11.50;;;11.00;;
34737;SDS011;39910;47.154;27.614;2023-09-19T05:43:48;11.68;;;11.18;;
34737;SDS011;39910;47.154;27.614;2023-09-19T05:46:15;11.65;;;11.15;;
34737;SDS011;39910;47.154;27.614;2023-09-19T05:48:41;11.40;;;10.90;;
34737;SDS011;39910;47.154;27.614;2023-09-19T05:51:09;11.75;;;11.25;;
34737;SDS011;39910;47.154;27.614;2023-09-19T05:53:35;11.98;;;11.48;;
34737;SDS011;39910;47.154;27.614;2023-09-19T05:56:00;11.68;;;11.18;;
34737;SDS011;39910;47.154;27.614;2023-09-19T05:58:26;11.77;;;11.27;;
34737;SDS011;39910;47.154;27.614;2023-09-19T06:00:51;11.98;;;11.48;;
34737;SDS011;39910;47.154;27.614;2023-09-19T06:03:17;11.82;;;11.32;;
34737;SDS011;39910;47.154;27.614;2023-09-19T06:05:44;12.00;;;11.50;;
34737;SDS011;39910;47.154;27.614;2023-09-19T06:08:11;12.13;;;11.63;;
34737;SDS011;39910;47.154;27.614;2023-09-19T06:10:37;11.50;;;11.00;;
34737;SDS011;39910;47.154;27.614;2023-09-19T06:13:02;11.65;;;11.15;;
34737;SDS011;39910;47.154;27.614;2023-09-19T06:15:31;11.88;;;11.38;;
34737;SDS011;39910;47.154;27.614;2023-09-19T06:17:58;11.85;;;11.35;;
34737;SDS011;39910;47.154;27.614;2023-09-19T06:20:24;11.95;;;11.45;;
34737;SDS011;39910;47.154;27.614;2023-09-19T06:22:50;11.70;;;11.20;;
34737;SDS011;39910;47.154;27.614;2023-09-19T06:25:16;11.80;;;11.30;;
34737;SDS011;39910;47.154;27.614;2023-09-19T06:27:45;11.68;;;11.18;;
34737;SDS011;39910;47.154;27.614;2023-09-19T06:30:10;11.65;;;11.15;;
34737;SDS011;39910;47.154;27.614;2023-09-19T06:32:39;11.80;;;11.30;;
34737;SDS011;39910;47.154;27.614;2023-09-19T06:35:05;11.85;;;11.35;;
34737;SDS011;39910;47.154;27.614;2023-09-19T06:37:36;11.90;;;11.40;;
34737;SDS011;39910;47.154;27.614;2023-09-19T06:40:04;12.23;;;11.73;;
34737;SDS011;39910;47.154;27.614;2023-09-19T06:42:30;12.18;;;11.68;;
34737;SDS011;39910;47.154;27.614;2023-09-19T06:44:55;12.10;;;11.60;;
34737;SDS011;39910;47.154;27.614;2023-09-19T06:47:21;12.10;;;11.60;;
34737;SDS011;39910;47.154;27.614;2023-09-19T06:49:46;11.90;;;11.40;;
34737;SDS011;39910;47.154;27.614;2023-09-19T06:52:11;12.20;;;11.70;;
34737;SDS011;39910;47.154;27.614;2023-09-19T06:54:37;11.55;;;11.05;;
34737;SDS011;39910;47.154;27.614;2023-09-19T06:57:02;12.02;;;11.52;;
34737;SDS011;39910;47.154;27.614;2023-09-19T06:59:28;12.02;;;11.52;;
34737;SDS011;39910;47.154;27.614;2023-09-19T07:01:53;12.07;;;11.57;;
34737;SDS011;39910;47.154;27.614;2023-09-19T07:04:19;12.23;;;11.73;;
34737;SDS011;39910;47.154;27.614;2023-09-19T07:06:49;12.02;;;11.52;;
34737;SDS011;39910;47.154;27.614;2023-09-19T07:09:14;12.07;;;11.57;;
34737;SDS011;39910;47.154;27.614;2023-09-19T07:11:40;11.88;;;11.38;;
34737;SDS011;39910;47.154;27.614;2023-09-19T07:14:05;12.07;;;11.57;;
34737;SDS011;39910;47.154;27.614;2023-09-19T07:16:30;11.73;;;11.23;;
34737;SDS011;39910;47.154;27.614;2023-09-19T07:18:56;12.20;;;11.70;;
34737;SDS011;39910;47.154;27.614;2023-09-19T07:21:22;11.98;;;11.48;;
34737;SDS011;39910;47.154;27.614;2023-09-19T07:23:48;12.00;;;11.50;;
34737;SDS011;39910;47.154;27.614;2023-09-19T07:26:15;11.93;;;11.43;;
34737;SDS011;39910;47.154;27.614;2023-09-19T07:28:40;12.00;;;11.50;;
34737;SDS011;39910;47.154;27.614;2023-09-19T07:31:05;12.20;;;11.70;;
34737;SDS011;39910;47.154;27.614;2023-09-19T07:33:34;11.85;;;11.35;;
34737;SDS011;39910;47.154;27.614;2023-09-19T07:35:59;12.07;;;11.57;;
34737;SDS011;39910;47.154;27.614;2023-09-19T07:38:24;11.73;;;11.23;;
34737;SDS011;39910;47.154;27.614;2023-09-19T07:40:51;12.02;;;11.52;;
34737;SDS011;39910;47.154;27.614;2023-09-19T07:43:16;11.87;;;11.37;;
34737;SDS011;39910;47.154;27.614;2023-09-19T07:45:43;12.20;;;11.70;;
34737;SDS011;39910;47.154;27.614;2023-09-19T07:48:08;12.10;;;11.60;;
34737;SDS011;39910;47.154;27.614;2023-09-19T07:50:39;12.10;;;11.60;;
34737;SDS011;39910;47.154;27.614;2023-09-19T07:53:05;11.85;;;11.35;;
34737;SDS011;39910;47.154;27.614;2023-09-19T07:55:30;12.23;;;11.73;;
34737;SDS011;39910;47.154;27.614;2023-09-19T07:57:58;12.25;;;11.75;;
34737;SDS011;39910;47.154;27.614;2023-09-19T08:00:24;11.77;;;11.27;;
34737;SDS011;39910;47.154;27.614;2023-09-19T08:02:49;12.07;;;11.57;;
34737;SDS011;39910;47.154;27.614;2023-09-19T08:05:14;12.05;;;11.55;;
34737;SDS011;39910;47.154;27.614;2023-09-19T08:07:44;11.88;;;11.38;;
34737;SDS011;39910;47.154;27.614;2023-09-19T08:10:10;12.20;;;11.70;;
34737;SDS011;39910;47.154;27.614;2023-09-19T08:12:40;11.80;;;11.30;;
34737;SDS011;39910;47.154;27.614;2023-09-19T08:15:12;12.20;;;11.70;;
34737;SDS011;39910;47.154;27.614;2023-09-19T08:17:37;12.18;;;11.68;;
34737;SDS011;39910;47.154;27.614;2023-09-19T08:20:02;11.90;;;11.40;;
34737;SDS011;39910;47.154;27.614;2023-09-19T08:22:31;11.85;;;11.35;;
34737;SDS011;39910;47.154;27.614;2023-09-19T08:24:57;12.02;;;11.52;;
34737;SDS011;39910;47.154;27.614;2023-09-19T08:27:23;12.10;;;11.60;;
34737;SDS011;39910;47.154;27.614;2023-09-19T08:29:51;12.20;;;11.70;;
34737;SDS011;39910;47.154;27.614;2023-09-19T08:32:17;12.23;;;11.73;;
34737;SDS011;39910;47.154;27.614;2023-09-19T08:34:44;12.85;;;12.25;;
34737;SDS011;39910;47.154;27.614;2023-09-19T08:37:10;12.60;;;12.00;;
34737;SDS011;39910;47.154;27.614;2023-09-19T08:39:35;12.73;;;12.13;;
34737;SDS011;39910;47.154;27.614;2023-09-19T08:42:02;12.38;;;11.80;;
34737;SDS011;39910;47.154;27.614;2023-09-19T08:44:27;12.63;;;12.02;;
34737;SDS011;39910;47.154;27.614;2023-09-19T08:46:55;12.10;;;11.60;;
34737;SDS011;39910;47.154;27.614;2023-09-19T08:52:16;12.20;;;11.70;;
34737;SDS011;39910;47.154;27.614;2023-09-19T08:54:45;12.60;;;12.00;;
34737;SDS011;39910;47.154;27.614;2023-09-19T08:57:12;12.20;;;11.70;;
34737;SDS011;39910;47.154;27.614;2023-09-19T08:59:42;12.18;;;11.68;;
34737;SDS011;39910;47.154;27.614;2023-09-19T09:02:12;12.43;;;11.82;;
34737;SDS011;39910;47.154;27.614;2023-09-19T09:04:42;12.15;;;11.65;;
34737;SDS011;39910;47.154;27.614;2023-09-19T09:07:12;12.65;;;12.05;;
34737;SDS011;39910;47.154;27.614;2023-09-19T09:09:42;12.77;;;12.18;;
34737;SDS011;39910;47.154;27.614;2023-09-19T09:12:11;12.50;;;11.90;;
34737;SDS011;39910;47.154;27.614;2023-09-19T09:14:38;12.43;;;11.85;;
34737;SDS011;39910;47.154;27.614;2023-09-19T09:17:03;12.88;;;12.27;;
34737;SDS011;39910;47.154;27.614;2023-09-19T09:19:30;12.00;;;11.50;;
34737;SDS011;39910;47.154;27.614;2023-09-19T09:22:05;12.73;;;12.13;;
34737;SDS011;39910;47.154;27.614;2023-09-19T09:24:30;11.95;;;11.45;;
34737;SDS011;39910;47.154;27.614;2023-09-19T09:26:59;12.23;;;11.73;;
34737;SDS011;39910;47.154;27.614;2023-09-19T09:34:56;12.18;;;11.68;;
34737;SDS011;39910;47.154;27.614;2023-09-19T09:37:21;12.23;;;11.73;;
34737;SDS011;39910;47.154;27.614;2023-09-19T09:39:57;12.45;;;11.85;;
34737;SDS011;39910;47.154;27.614;2023-09-19T09:42:33;12.50;;;11.90;;
34737;SDS011;39910;47.154;27.614;2023-09-19T09:45:19;12.18;;;11.68;;
34737;SDS011;39910;47.154;27.614;2023-09-19T09:47:54;12.20;;;11.70;;
34737;SDS011;39910;47.154;27.614;2023-09-19T09:52:54;12.00;;;11.50;;
34737;SDS011;39910;47.154;27.614;2023-09-19T09:55:25;12.15;;;11.65;;
34737;SDS011;39910;47.154;27.614;2023-09-19T09:58:01;12.07;;;11.57;;
34737;SDS011;39910;47.154;27.614;2023-09-19T10:00:39;12.13;;;11.63;;
34737;SDS011;39910;47.154;27.614;2023-09-19T10:03:20;12.07;;;11.57;;
34737;SDS011;39910;47.154;27.614;2023-09-19T10:05:46;12.40;;;11.80;;
34737;SDS011;39910;47.154;27.614;2023-09-19T10:08:20;11.90;;;11.40;;
34737;SDS011;39910;47.154;27.614;2023-09-19T10:10:46;11.85;;;11.35;;
34737;SDS011;39910;47.154;27.614;2023-09-19T10:13:32;12.45;;;11.85;;
34737;SDS011;39910;47.154;27.614;2023-09-19T10:16:00;11.82;;;11.32;;
34737;SDS011;39910;47.154;27.614;2023-09-19T10:18:30;11.98;;;11.48;;
34737;SDS011;39910;47.154;27.614;2023-09-19T10:20:58;12.27;;;11.77;;
34737;SDS011;39910;47.154;27.614;2023-09-19T10:23:24;12.00;;;11.50;;
34737;SDS011;39910;47.154;27.614;2023-09-19T10:25:51;12.00;;;11.50;;
34737;SDS011;39910;47.154;27.614;2023-09-19T10:28:17;12.10;;;11.60;;
34737;SDS011;39910;47.154;27.614;2023-09-19T10:30:47;11.77;;;11.27;;
34737;SDS011;39910;47.154;27.614;2023-09-19T10:33:14;12.05;;;11.55;;
34737;SDS011;39910;47.154;27.614;2023-09-19T10:35:42;11.90;;;11.40;;
34737;SDS011;39910;47.154;27.614;2023-09-19T10:38:07;11.98;;;11.48;;
34737;SDS011;39910;47.154;27.614;2023-09-19T10:40:34;11.75;;;11.25;;
34737;SDS011;39910;47.154;27.614;2023-09-19T10:43:04;12.00;;;11.50;;
34737;SDS011;39910;47.154;27.614;2023-09-19T10:45:33;11.85;;;11.35;;
34737;SDS011;39910;47.154;27.614;2023-09-19T10:48:00;12.00;;;11.50;;
34737;SDS011;39910;47.154;27.614;2023-09-19T10:50:28;11.80;;;11.30;;
34737;SDS011;39910;47.154;27.614;2023-09-19T10:52:56;11.95;;;11.45;;
34737;SDS011;39910;47.154;27.614;2023-09-19T10:55:29;11.70;;;11.20;;
34737;SDS011;39910;47.154;27.614;2023-09-19T10:57:55;12.00;;;11.50;;
34737;SDS011;39910;47.154;27.614;2023-09-19T11:00:29;12.55;;;11.95;;
34737;SDS011;39910;47.154;27.614;2023-09-19T11:05:39;11.95;;;11.45;;
34737;SDS011;39910;47.154;27.614;2023-09-19T11:08:05;12.95;;;12.35;;
34737;SDS011;39910;47.154;27.614;2023-09-19T11:10:51;12.20;;;11.70;;
34737;SDS011;39910;47.154;27.614;2023-09-19T11:26:41;11.77;;;11.27;;
34737;SDS011;39910;47.154;27.614;2023-09-19T11:29:24;12.00;;;11.50;;
34737;SDS011;39910;47.154;27.614;2023-09-19T11:31:50;12.02;;;11.52;;
34737;SDS011;39910;47.154;27.614;2023-09-19T11:37:01;12.15;;;11.65;;
34737;SDS011;39910;47.154;27.614;2023-09-19T11:39:29;11.40;;;10.90;;
34737;SDS011;39910;47.154;27.614;2023-09-19T11:41:54;11.73;;;11.23;;
34737;SDS011;39910;47.154;27.614;2023-09-19T11:44:31;11.77;;;11.27;;
34737;SDS011;39910;47.154;27.614;2023-09-19T11:46:58;11.70;;;11.20;;
34737;SDS011;39910;47.154;27.614;2023-09-19T11:49:26;11.90;;;11.40;;
34737;SDS011;39910;47.154;27.614;2023-09-19T11:51:55;11.75;;;11.25;;
34737;SDS011;39910;47.154;27.614;2023-09-19T11:54:20;12.00;;;11.50;;
34737;SDS011;39910;47.154;27.614;2023-09-19T11:56:51;11.85;;;11.35;;
34737;SDS011;39910;47.154;27.614;2023-09-19T11:59:20;11.60;;;11.10;;
34737;SDS011;39910;47.154;27.614;2023-09-19T12:01:51;11.73;;;11.23;;
34737;SDS011;39910;47.154;27.614;2023-09-19T12:04:30;11.60;;;11.10;;
34737;SDS011;39910;47.154;27.614;2023-09-19T12:06:58;11.95;;;11.45;;
34737;SDS011;39910;47.154;27.614;2023-09-19T12:09:24;12.18;;;11.68;;
34737;SDS011;39910;47.154;27.614;2023-09-19T12:11:50;11.80;;;11.30;;
34737;SDS011;39910;47.154;27.614;2023-09-19T12:14:21;12.20;;;11.70;;
34737;SDS011;39910;47.154;27.614;2023-09-19T12:16:53;12.00;;;11.50;;
34737;SDS011;39910;47.154;27.614;2023-09-19T12:19:20;11.80;;;11.30;;
34737;SDS011;39910;47.154;27.614;2023-09-19T12:21:56;11.70;;;11.20;;
34737;SDS011;39910;47.154;27.614;2023-09-19T12:24:29;11.88;;;11.38;;
34737;SDS011;39910;47.154;27.614;2023-09-19T12:26:59;12.32;;;11.77;;
34737;SDS011;39910;47.154;27.614;2023-09-19T12:29:26;12.50;;;11.90;;
34737;SDS011;39910;47.154;27.614;2023-09-19T12:34:19;12.20;;;11.60;;
34737;SDS011;39910;47.154;27.614;2023-09-19T12:36:45;12.00;;;11.50;;
34737;SDS011;39910;47.154;27.614;2023-09-19T12:39:11;11.68;;;11.18;;
34737;SDS011;39910;47.154;27.614;2023-09-19T12:41:37;11.70;;;11.20;;
34737;SDS011;39910;47.154;27.614;2023-09-19T12:44:03;11.70;;;11.20;;
34737;SDS011;39910;47.154;27.614;2023-09-19T12:46:33;11.73;;;11.23;;
34737;SDS011;39910;47.154;27.614;2023-09-19T12:49:15;11.82;;;11.32;;
34737;SDS011;39910;47.154;27.614;2023-09-19T12:51:42;11.98;;;11.48;;
34737;SDS011;39910;47.154;27.614;2023-09-19T12:54:08;12.35;;;11.77;;
34737;SDS011;39910;47.154;27.614;2023-09-19T12:56:42;12.25;;;11.68;;
34737;SDS011;39910;47.154;27.614;2023-09-19T12:59:11;12.00;;;11.50;;
34737;SDS011;39910;47.154;27.614;2023-09-19T13:01:38;12.18;;;11.68;;
34737;SDS011;39910;47.154;27.614;2023-09-19T13:04:20;11.90;;;11.40;;
34737;SDS011;39910;47.154;27.614;2023-09-19T13:06:51;11.82;;;11.32;;
34737;SDS011;39910;47.154;27.614;2023-09-19T13:09:17;12.35;;;11.82;;
34737;SDS011;39910;47.154;27.614;2023-09-19T13:11:43;12.55;;;11.95;;
34737;SDS011;39910;47.154;27.614;2023-09-19T13:14:25;11.98;;;11.48;;
34737;SDS011;39910;47.154;27.614;2023-09-19T13:17:00;11.63;;;11.13;;
34737;SDS011;39910;47.154;27.614;2023-09-19T13:19:39;12.40;;;11.80;;
34737;SDS011;39910;47.154;27.614;2023-09-19T13:22:50;11.63;;;11.13;;
34737;SDS011;39910;47.154;27.614;2023-09-19T13:24:51;12.43;;;11.82;;
34737;SDS011;39910;47.154;27.614;2023-09-19T13:27:16;11.73;;;11.23;;
34737;SDS011;39910;47.154;27.614;2023-09-19T13:29:42;11.90;;;11.40;;
34737;SDS011;39910;47.154;27.614;2023-09-19T13:32:08;11.80;;;11.30;;
34737;SDS011;39910;47.154;27.614;2023-09-19T13:34:36;11.75;;;11.25;;
34737;SDS011;39910;47.154;27.614;2023-09-19T13:37:02;11.90;;;11.40;;
34737;SDS011;39910;47.154;27.614;2023-09-19T13:39:28;11.52;;;11.02;;
34737;SDS011;39910;47.154;27.614;2023-09-19T13:41:54;11.65;;;11.15;;
34737;SDS011;39910;47.154;27.614;2023-09-19T13:44:20;11.52;;;11.02;;
34737;SDS011;39910;47.154;27.614;2023-09-19T13:46:45;11.80;;;11.30;;
34737;SDS011;39910;47.154;27.614;2023-09-19T13:49:11;12.00;;;11.50;;
34737;SDS011;39910;47.154;27.614;2023-09-19T13:51:36;11.98;;;11.48;;
34737;SDS011;39910;47.154;27.614;2023-09-19T13:54:04;12.10;;;11.60;;
34737;SDS011;39910;47.154;27.614;2023-09-19T13:56:30;11.73;;;11.23;;
34737;SDS011;39910;47.154;27.614;2023-09-19T13:58:57;12.15;;;11.63;;
34737;SDS011;39910;47.154;27.614;2023-09-19T14:01:22;11.95;;;11.45;;
34737;SDS011;39910;47.154;27.614;2023-09-19T14:03:47;11.68;;;11.18;;
34737;SDS011;39910;47.154;27.614;2023-09-19T14:06:14;11.98;;;11.48;;
34737;SDS011;39910;47.154;27.614;2023-09-19T14:08:40;12.27;;;11.77;;
34737;SDS011;39910;47.154;27.614;2023-09-19T14:11:06;12.00;;;11.50;;
34737;SDS011;39910;47.154;27.614;2023-09-19T14:13:31;11.48;;;10.98;;
34737;SDS011;39910;47.154;27.614;2023-09-19T14:15:57;12.02;;;11.52;;
34737;SDS011;39910;47.154;27.614;2023-09-19T14:18:22;12.13;;;11.63;;
34737;SDS011;39910;47.154;27.614;2023-09-19T14:20:48;12.25;;;11.73;;
34737;SDS011;39910;47.154;27.614;2023-09-19T14:23:13;11.77;;;11.27;;
34737;SDS011;39910;47.154;27.614;2023-09-19T14:25:38;12.38;;;11.82;;
34737;SDS011;39910;47.154;27.614;2023-09-19T14:28:04;12.20;;;11.70;;
34737;SDS011;39910;47.154;27.614;2023-09-19T14:30:29;12.10;;;11.60;;
34737;SDS011;39910;47.154;27.614;2023-09-19T14:32:55;11.85;;;11.35;;
34737;SDS011;39910;47.154;27.614;2023-09-19T14:35:20;12.25;;;11.75;;
34737;SDS011;39910;47.154;27.614;2023-09-19T14:37:48;12.40;;;11.80;;
34737;SDS011;39910;47.154;27.614;2023-09-19T14:40:13;11.52;;;11.02;;
34737;SDS011;39910;47.154;27.614;2023-09-19T14:42:41;11.50;;;11.00;;
34737;SDS011;39910;47.154;27.614;2023-09-19T14:45:09;11.57;;;11.07;;
34737;SDS011;39910;47.154;27.614;2023-09-19T14:47:34;11.68;;;11.18;;
34737;SDS011;39910;47.154;27.614;2023-09-19T14:50:00;12.10;;;11.60;;
34737;SDS011;39910;47.154;27.614;2023-09-19T14:52:26;11.82;;;11.32;;
34737;SDS011;39910;47.154;27.614;2023-09-19T14:54:53;11.95;;;11.45;;
34737;SDS011;39910;47.154;27.614;2023-09-19T14:57:18;12.05;;;11.55;;
34737;SDS011;39910;47.154;27.614;2023-09-19T14:59:44;12.05;;;11.55;;
34737;SDS011;39910;47.154;27.614;2023-09-19T15:02:10;12.07;;;11.57;;
34737;SDS011;39910;47.154;27.614;2023-09-19T15:04:36;11.90;;;11.40;;